シドニー の空港の天気 - METARとTAF

シドニー国際空港 ( YSSY / SYD ) - オーストラリア ニューサウスウェールズ州、Mascot
飛行場実況気象(Metar)
観測時間06/29 15:30 AEST (06/29 05:30 UTC)
風向・風速北 5m/s
視程10km以上
天気現象
少しの雲 雲底高度 1220m
全天を覆う雲 雲底高度 7320m
気温18℃
湿度49%
気圧1022hPa
METARYSSY 290530Z 01010KT 9999 FEW040 OVC240 18/07 Q1022
過去の天気等 Google飛行場航空写真 Wunderground天気予報

過去48時間のMETAR

飛行場予報(TAF)
発表時間: 6/29 15:09 AEST (6/29 05:09 UTC)
予報対象時間: 29日16時 AEST ~ 30日22時 AEST
風向・風速北 7m/s
視程10km以上
少しの雲 雲底高度 1220m
29日20時 AEST から
風向・風速西 4m/s
視程10km以上
なし
30日11時 AEST から
風向・風速南 6m/s
視程10km以上
少しの雲 雲底高度 1220m
30日20時 AEST から
風向・風速西 4m/s
視程10km以上
全天の4割程度の雲 雲底高度 1220m
TAF YSSY 290509Z 2906/3012 01014KT 9999 FEW040
FM291000 28008KT CAVOK
FM300100 18012KT 9999 FEW040
FM301000 28008KT 9999 SCT040